Emine Anne — TCBX9 — position and weather

sailwx.info

Track history (hours):
 
Tides and Currents Weather Stations Pressure Air Temp Water Temp Dewpoint Dewpoint Depression Visibility Wind Speed Wind Dir Waves Ship Positions

Emine Anne

Last reported at 2016-Jun-18 09:08 UTC. Time now 2016-Jun-26 15:36 UTC.
Position N 40°46' E 029°04'.
Warning: this ship's position is 8 days out of date.

Length 69 m; draft 4 m.

Type: Cargo ship. MMSI: 271002305.

Date/timePositionNaut miles runAvg speedWind from/ knotsBaromVisibWave heightAir tempDewpointWater temp
2016-Jun-18 09:08N 40°46' E 029°04'2 3.8
2016-Jun-18 08:33N 40°46' E 029°07'9 8.5
2016-Jun-18 07:33N 40°45' E 029°18'  
2016-Jun-14 05:33N 37°38' E 023°49'8 7.5
2016-Jun-14 04:33N 37°39' E 023°40'8 7.7
2016-Jun-14 03:33N 37°39' E 023°30'8 8.2
2016-Jun-14 02:33N 37°39' E 023°19'6 6.2
2016-Jun-14 01:33N 37°43' E 023°13'8 8.1
2016-Jun-14 00:33N 37°51' E 023°11'8 7.7
2016-Jun-13 23:34N 37°54' E 023°02'  
2016-Jun-10 12:33N 37°55' E 023°01'5 4.9
2016-Jun-10 11:31N 37°53' E 023°07'8 8.3
2016-Jun-10 10:33N 37°47' E 023°14'9 8.7
2016-Jun-10 09:33N 37°40' E 023°20'9 9.5
2016-Jun-10 08:33N 37°39' E 023°32'10 9.5
2016-Jun-10 07:32N 37°38' E 023°44'10 9.2
2016-Jun-10 06:27N 37°37' E 023°57'19 9.2
2016-Jun-10 04:27N 37°46' E 024°17'9 9.9
2016-Jun-10 03:33N 37°51' E 024°26'279 7.3
2016-Jun-08 13:18N 40°48' E 029°05'7 8.9
2016-Jun-08 12:33N 40°52' E 029°12'0 0.3
2016-Jun-08 11:24N 40°52' E 029°12'0 0.0
2016-Jun-08 10:28N 40°52' E 029°12'0 0.0
2016-Jun-08 09:28N 40°52' E 029°12'  
Track history (hours):
 
Tides and Currents Weather Stations Pressure Air Temp Water Temp Dewpoint Dewpoint Depression Visibility Wind Speed Wind Dir Waves Ship Positions

Emine Anne

Last reported at 2016-Jun-18 09:08 UTC. Time now 2016-Jun-26 15:36 UTC.
Position N 40°46' E 029°04'.
Warning: this ship's position is 8 days out of date.

Length 69 m; draft 4 m.

Type: Cargo ship. MMSI: 271002305.

Date/timePositionNaut miles runAvg speedWind from/ knotsBaromVisibWave heightAir tempDewpointWater temp
2016-Jun-18 09:08N 40°46' E 029°04'2 3.8
2016-Jun-18 08:33N 40°46' E 029°07'9 8.5
2016-Jun-18 07:33N 40°45' E 029°18'  
2016-Jun-14 05:33N 37°38' E 023°49'8 7.5
2016-Jun-14 04:33N 37°39' E 023°40'8 7.7
2016-Jun-14 03:33N 37°39' E 023°30'8 8.2
2016-Jun-14 02:33N 37°39' E 023°19'6 6.2
2016-Jun-14 01:33N 37°43' E 023°13'8 8.1
2016-Jun-14 00:33N 37°51' E 023°11'8 7.7
2016-Jun-13 23:34N 37°54' E 023°02'  
2016-Jun-10 12:33N 37°55' E 023°01'5 4.9
2016-Jun-10 11:31N 37°53' E 023°07'8 8.3
2016-Jun-10 10:33N 37°47' E 023°14'9 8.7
2016-Jun-10 09:33N 37°40' E 023°20'9 9.5
2016-Jun-10 08:33N 37°39' E 023°32'10 9.5
2016-Jun-10 07:32N 37°38' E 023°44'10 9.2
2016-Jun-10 06:27N 37°37' E 023°57'19 9.2
2016-Jun-10 04:27N 37°46' E 024°17'9 9.9
2016-Jun-10 03:33N 37°51' E 024°26'279 7.3
2016-Jun-08 13:18N 40°48' E 029°05'7 8.9
2016-Jun-08 12:33N 40°52' E 029°12'0 0.3
2016-Jun-08 11:24N 40°52' E 029°12'0 0.0
2016-Jun-08 10:28N 40°52' E 029°12'0 0.0
2016-Jun-08 09:28N 40°52' E 029°12'  

Dump ship's entire track history